sensor_id;sensor_type;location;lat;lon;timestamp;P1;durP1;ratioP1;P2;durP2;ratioP2
6582;SDS011;3325;48.718;9.118;2022-07-10T00:01:05;2.70;;;2.50;;
6582;SDS011;3325;48.718;9.118;2022-07-10T00:03:31;3.43;;;2.80;;
6582;SDS011;3325;48.718;9.118;2022-07-10T00:05:56;3.93;;;2.47;;
6582;SDS011;3325;48.718;9.118;2022-07-10T00:08:22;3.57;;;2.73;;
6582;SDS011;3325;48.718;9.118;2022-07-10T00:10:47;5.80;;;2.80;;
6582;SDS011;3325;48.718;9.118;2022-07-10T00:13:13;4.30;;;2.40;;
6582;SDS011;3325;48.718;9.118;2022-07-10T00:15:38;2.80;;;2.57;;
6582;SDS011;3325;48.718;9.118;2022-07-10T00:18:04;3.80;;;2.73;;
6582;SDS011;3325;48.718;9.118;2022-07-10T00:20:29;2.67;;;2.30;;
6582;SDS011;3325;48.718;9.118;2022-07-10T00:22:55;3.03;;;2.70;;
6582;SDS011;3325;48.718;9.118;2022-07-10T00:25:21;5.00;;;2.77;;
6582;SDS011;3325;48.718;9.118;2022-07-10T00:27:46;3.07;;;2.80;;
6582;SDS011;3325;48.718;9.118;2022-07-10T00:30:12;3.67;;;2.57;;
6582;SDS011;3325;48.718;9.118;2022-07-10T00:32:37;3.60;;;2.57;;
6582;SDS011;3325;48.718;9.118;2022-07-10T00:35:04;2.87;;;2.40;;
6582;SDS011;3325;48.718;9.118;2022-07-10T00:37:30;3.53;;;2.70;;
6582;SDS011;3325;48.718;9.118;2022-07-10T00:39:56;2.77;;;2.50;;
6582;SDS011;3325;48.718;9.118;2022-07-10T00:42:21;2.43;;;2.20;;
6582;SDS011;3325;48.718;9.118;2022-07-10T00:44:47;3.43;;;2.10;;
6582;SDS011;3325;48.718;9.118;2022-07-10T00:47:12;2.80;;;2.60;;
6582;SDS011;3325;48.718;9.118;2022-07-10T00:49:42;2.40;;;2.20;;
6582;SDS011;3325;48.718;9.118;2022-07-10T00:52:09;2.60;;;2.30;;
6582;SDS011;3325;48.718;9.118;2022-07-10T00:54:37;3.23;;;2.93;;
6582;SDS011;3325;48.718;9.118;2022-07-10T00:57:05;3.07;;;2.53;;
6582;SDS011;3325;48.718;9.118;2022-07-10T00:59:31;5.13;;;2.67;;
6582;SDS011;3325;48.718;9.118;2022-07-10T01:01:57;2.87;;;2.57;;
6582;SDS011;3325;48.718;9.118;2022-07-10T01:04:23;3.57;;;2.80;;
6582;SDS011;3325;48.718;9.118;2022-07-10T01:06:49;3.07;;;2.60;;
6582;SDS011;3325;48.718;9.118;2022-07-10T01:09:15;2.90;;;2.60;;
6582;SDS011;3325;48.718;9.118;2022-07-10T01:11:40;2.60;;;2.40;;
6582;SDS011;3325;48.718;9.118;2022-07-10T01:14:06;2.40;;;2.17;;
6582;SDS011;3325;48.718;9.118;2022-07-10T01:16:33;3.30;;;2.20;;
6582;SDS011;3325;48.718;9.118;2022-07-10T01:18:59;2.97;;;2.43;;
6582;SDS011;3325;48.718;9.118;2022-07-10T01:21:28;2.83;;;2.63;;
6582;SDS011;3325;48.718;9.118;2022-07-10T01:23:56;3.30;;;2.50;;
6582;SDS011;3325;48.718;9.118;2022-07-10T01:26:22;5.53;;;2.73;;
6582;SDS011;3325;48.718;9.118;2022-07-10T01:28:49;3.83;;;2.53;;
6582;SDS011;3325;48.718;9.118;2022-07-10T01:31:17;3.67;;;2.80;;
6582;SDS011;3325;48.718;9.118;2022-07-10T01:33:44;4.10;;;2.97;;
6582;SDS011;3325;48.718;9.118;2022-07-10T01:36:10;4.00;;;2.63;;
6582;SDS011;3325;48.718;9.118;2022-07-10T01:38:36;5.13;;;2.93;;
6582;SDS011;3325;48.718;9.118;2022-07-10T01:41:02;3.00;;;2.67;;
6582;SDS011;3325;48.718;9.118;2022-07-10T01:43:28;3.00;;;2.80;;
6582;SDS011;3325;48.718;9.118;2022-07-10T01:45:54;5.47;;;3.23;;
6582;SDS011;3325;48.718;9.118;2022-07-10T01:48:19;3.20;;;2.90;;
6582;SDS011;3325;48.718;9.118;2022-07-10T01:50:45;4.77;;;3.03;;
6582;SDS011;3325;48.718;9.118;2022-07-10T01:53:10;3.67;;;3.07;;
6582;SDS011;3325;48.718;9.118;2022-07-10T01:55:36;3.50;;;2.77;;
6582;SDS011;3325;48.718;9.118;2022-07-10T01:58:02;6.73;;;3.73;;
6582;SDS011;3325;48.718;9.118;2022-07-10T02:00:27;3.50;;;2.97;;
6582;SDS011;3325;48.718;9.118;2022-07-10T02:02:53;3.50;;;2.87;;
6582;SDS011;3325;48.718;9.118;2022-07-10T02:05:37;3.80;;;3.10;;
6582;SDS011;3325;48.718;9.118;2022-07-10T02:08:03;3.23;;;2.77;;
6582;SDS011;3325;48.718;9.118;2022-07-10T02:10:30;4.37;;;3.23;;
6582;SDS011;3325;48.718;9.118;2022-07-10T02:12:57;7.37;;;3.63;;
6582;SDS011;3325;48.718;9.118;2022-07-10T02:15:22;4.80;;;3.50;;
6582;SDS011;3325;48.718;9.118;2022-07-10T02:17:48;4.27;;;3.73;;
6582;SDS011;3325;48.718;9.118;2022-07-10T02:20:14;7.07;;;3.50;;
6582;SDS011;3325;48.718;9.118;2022-07-10T02:22:39;4.23;;;3.67;;
6582;SDS011;3325;48.718;9.118;2022-07-10T02:25:05;6.30;;;4.97;;
6582;SDS011;3325;48.718;9.118;2022-07-10T02:27:31;5.93;;;4.63;;
6582;SDS011;3325;48.718;9.118;2022-07-10T02:29:56;7.63;;;4.17;;
6582;SDS011;3325;48.718;9.118;2022-07-10T02:32:22;6.93;;;5.50;;
6582;SDS011;3325;48.718;9.118;2022-07-10T02:34:47;11.10;;;6.20;;
6582;SDS011;3325;48.718;9.118;2022-07-10T02:37:13;7.80;;;7.00;;
6582;SDS011;3325;48.718;9.118;2022-07-10T02:39:38;7.07;;;6.30;;
6582;SDS011;3325;48.718;9.118;2022-07-10T02:42:04;8.63;;;7.60;;
6582;SDS011;3325;48.718;9.118;2022-07-10T02:44:29;12.57;;;10.03;;
6582;SDS011;3325;48.718;9.118;2022-07-10T02:46:55;12.00;;;9.00;;
6582;SDS011;3325;48.718;9.118;2022-07-10T02:49:21;12.60;;;9.13;;
6582;SDS011;3325;48.718;9.118;2022-07-10T02:51:46;10.80;;;9.63;;
6582;SDS011;3325;48.718;9.118;2022-07-10T02:54:11;11.07;;;9.63;;
6582;SDS011;3325;48.718;9.118;2022-07-10T02:56:37;11.60;;;8.90;;
6582;SDS011;3325;48.718;9.118;2022-07-10T02:59:03;12.00;;;8.50;;
6582;SDS011;3325;48.718;9.118;2022-07-10T03:01:28;12.93;;;10.07;;
6582;SDS011;3325;48.718;9.118;2022-07-10T03:03:54;10.40;;;9.40;;
6582;SDS011;3325;48.718;9.118;2022-07-10T03:06:20;10.77;;;9.50;;
6582;SDS011;3325;48.718;9.118;2022-07-10T03:08:45;9.30;;;8.33;;
6582;SDS011;3325;48.718;9.118;2022-07-10T03:11:11;11.60;;;8.67;;
6582;SDS011;3325;48.718;9.118;2022-07-10T03:13:36;11.03;;;9.83;;
6582;SDS011;3325;48.718;9.118;2022-07-10T03:16:02;9.53;;;8.07;;
6582;SDS011;3325;48.718;9.118;2022-07-10T03:18:27;11.20;;;10.07;;
6582;SDS011;3325;48.718;9.118;2022-07-10T03:20:53;14.40;;;9.60;;
6582;SDS011;3325;48.718;9.118;2022-07-10T03:23:19;17.17;;;9.20;;
6582;SDS011;3325;48.718;9.118;2022-07-10T03:25:44;11.67;;;8.23;;
6582;SDS011;3325;48.718;9.118;2022-07-10T03:28:10;9.97;;;8.03;;
6582;SDS011;3325;48.718;9.118;2022-07-10T03:30:36;9.40;;;7.63;;
6582;SDS011;3325;48.718;9.118;2022-07-10T03:33:01;12.20;;;8.63;;
6582;SDS011;3325;48.718;9.118;2022-07-10T03:35:28;8.80;;;7.73;;
6582;SDS011;3325;48.718;9.118;2022-07-10T03:37:56;10.77;;;8.67;;
6582;SDS011;3325;48.718;9.118;2022-07-10T03:40:22;11.27;;;9.70;;
6582;SDS011;3325;48.718;9.118;2022-07-10T03:42:47;9.73;;;8.70;;
6582;SDS011;3325;48.718;9.118;2022-07-10T03:45:13;11.03;;;9.87;;
6582;SDS011;3325;48.718;9.118;2022-07-10T03:47:38;13.10;;;9.37;;
6582;SDS011;3325;48.718;9.118;2022-07-10T03:50:04;10.47;;;8.50;;
6582;SDS011;3325;48.718;9.118;2022-07-10T03:52:30;9.63;;;8.53;;
6582;SDS011;3325;48.718;9.118;2022-07-10T03:54:56;10.80;;;9.67;;
6582;SDS011;3325;48.718;9.118;2022-07-10T03:57:21;11.93;;;9.57;;
6582;SDS011;3325;48.718;9.118;2022-07-10T04:00:06;11.00;;;9.23;;
6582;SDS011;3325;48.718;9.118;2022-07-10T04:02:32;11.83;;;10.13;;
6582;SDS011;3325;48.718;9.118;2022-07-10T04:04:57;9.90;;;8.60;;
6582;SDS011;3325;48.718;9.118;2022-07-10T04:07:23;11.17;;;8.97;;
6582;SDS011;3325;48.718;9.118;2022-07-10T04:09:49;10.93;;;9.43;;
6582;SDS011;3325;48.718;9.118;2022-07-10T04:12:14;11.63;;;9.43;;
6582;SDS011;3325;48.718;9.118;2022-07-10T04:14:40;11.40;;;9.30;;
6582;SDS011;3325;48.718;9.118;2022-07-10T04:17:06;9.83;;;8.87;;
6582;SDS011;3325;48.718;9.118;2022-07-10T04:19:31;11.83;;;9.17;;
6582;SDS011;3325;48.718;9.118;2022-07-10T04:21:57;11.20;;;8.50;;
6582;SDS011;3325;48.718;9.118;2022-07-10T04:24:23;9.57;;;8.57;;
6582;SDS011;3325;48.718;9.118;2022-07-10T04:26:48;11.27;;;8.30;;
6582;SDS011;3325;48.718;9.118;2022-07-10T04:29:14;9.90;;;8.60;;
6582;SDS011;3325;48.718;9.118;2022-07-10T04:31:39;12.27;;;9.33;;
6582;SDS011;3325;48.718;9.118;2022-07-10T04:34:05;9.97;;;7.87;;
6582;SDS011;3325;48.718;9.118;2022-07-10T04:36:30;9.97;;;7.97;;
6582;SDS011;3325;48.718;9.118;2022-07-10T04:38:56;9.23;;;7.57;;
6582;SDS011;3325;48.718;9.118;2022-07-10T04:41:21;10.00;;;7.37;;
6582;SDS011;3325;48.718;9.118;2022-07-10T04:43:47;9.00;;;6.63;;
6582;SDS011;3325;48.718;9.118;2022-07-10T04:46:13;13.00;;;7.53;;
6582;SDS011;3325;48.718;9.118;2022-07-10T04:48:38;7.30;;;6.60;;
6582;SDS011;3325;48.718;9.118;2022-07-10T04:51:04;8.43;;;6.83;;
6582;SDS011;3325;48.718;9.118;2022-07-10T04:53:29;8.37;;;6.90;;
6582;SDS011;3325;48.718;9.118;2022-07-10T04:55:55;7.90;;;5.80;;
6582;SDS011;3325;48.718;9.118;2022-07-10T04:58:20;7.37;;;5.90;;
6582;SDS011;3325;48.718;9.118;2022-07-10T05:00:46;7.00;;;5.73;;
6582;SDS011;3325;48.718;9.118;2022-07-10T05:03:12;7.53;;;6.27;;
6582;SDS011;3325;48.718;9.118;2022-07-10T05:05:37;7.90;;;5.77;;
6582;SDS011;3325;48.718;9.118;2022-07-10T05:08:03;7.50;;;6.13;;
6582;SDS011;3325;48.718;9.118;2022-07-10T05:10:28;9.00;;;5.53;;
6582;SDS011;3325;48.718;9.118;2022-07-10T05:12:55;6.90;;;5.03;;
6582;SDS011;3325;48.718;9.118;2022-07-10T05:15:20;6.83;;;5.37;;
6582;SDS011;3325;48.718;9.118;2022-07-10T05:17:46;8.97;;;5.60;;
6582;SDS011;3325;48.718;9.118;2022-07-10T05:20:11;7.20;;;4.37;;
6582;SDS011;3325;48.718;9.118;2022-07-10T05:22:37;8.83;;;5.70;;
6582;SDS011;3325;48.718;9.118;2022-07-10T05:25:02;5.73;;;4.57;;
6582;SDS011;3325;48.718;9.118;2022-07-10T05:27:28;7.63;;;4.80;;
6582;SDS011;3325;48.718;9.118;2022-07-10T05:29:54;5.67;;;4.57;;
6582;SDS011;3325;48.718;9.118;2022-07-10T05:32:19;4.87;;;4.20;;
6582;SDS011;3325;48.718;9.118;2022-07-10T05:34:45;8.83;;;4.13;;
6582;SDS011;3325;48.718;9.118;2022-07-10T05:37:10;4.33;;;3.87;;
6582;SDS011;3325;48.718;9.118;2022-07-10T05:39:36;6.37;;;4.00;;
6582;SDS011;3325;48.718;9.118;2022-07-10T05:42:01;6.27;;;3.50;;
6582;SDS011;3325;48.718;9.118;2022-07-10T05:44:27;4.57;;;3.50;;
6582;SDS011;3325;48.718;9.118;2022-07-10T05:46:53;4.90;;;3.40;;
6582;SDS011;3325;48.718;9.118;2022-07-10T05:49:18;5.70;;;3.57;;
6582;SDS011;3325;48.718;9.118;2022-07-10T05:51:44;4.37;;;2.90;;
6582;SDS011;3325;48.718;9.118;2022-07-10T05:54:09;5.97;;;2.97;;
6582;SDS011;3325;48.718;9.118;2022-07-10T05:56:35;4.00;;;2.50;;
6582;SDS011;3325;48.718;9.118;2022-07-10T05:59:00;7.13;;;2.60;;
6582;SDS011;3325;48.718;9.118;2022-07-10T06:01:26;4.93;;;2.70;;
6582;SDS011;3325;48.718;9.118;2022-07-10T06:03:51;6.33;;;2.80;;
6582;SDS011;3325;48.718;9.118;2022-07-10T06:06:17;3.37;;;2.33;;
6582;SDS011;3325;48.718;9.118;2022-07-10T06:08:43;11.27;;;2.77;;
6582;SDS011;3325;48.718;9.118;2022-07-10T06:11:09;7.63;;;2.80;;
6582;SDS011;3325;48.718;9.118;2022-07-10T06:13:35;4.13;;;2.43;;
6582;SDS011;3325;48.718;9.118;2022-07-10T06:16:01;4.20;;;2.50;;
6582;SDS011;3325;48.718;9.118;2022-07-10T06:18:28;6.60;;;2.63;;
6582;SDS011;3325;48.718;9.118;2022-07-10T06:20:54;7.73;;;2.30;;
6582;SDS011;3325;48.718;9.118;2022-07-10T06:23:20;5.67;;;2.37;;
6582;SDS011;3325;48.718;9.118;2022-07-10T06:25:45;5.47;;;2.63;;
6582;SDS011;3325;48.718;9.118;2022-07-10T06:28:11;6.30;;;2.40;;
6582;SDS011;3325;48.718;9.118;2022-07-10T06:30:36;4.03;;;2.13;;
6582;SDS011;3325;48.718;9.118;2022-07-10T06:33:02;3.33;;;2.17;;
6582;SDS011;3325;48.718;9.118;2022-07-10T06:35:30;4.20;;;2.60;;
6582;SDS011;3325;48.718;9.118;2022-07-10T06:37:56;3.10;;;2.20;;
6582;SDS011;3325;48.718;9.118;2022-07-10T06:40:21;5.80;;;2.37;;
6582;SDS011;3325;48.718;9.118;2022-07-10T06:42:47;6.27;;;2.40;;
6582;SDS011;3325;48.718;9.118;2022-07-10T06:45:13;4.57;;;2.33;;
6582;SDS011;3325;48.718;9.118;2022-07-10T06:47:38;3.33;;;2.33;;
6582;SDS011;3325;48.718;9.118;2022-07-10T06:50:30;5.53;;;2.40;;
6582;SDS011;3325;48.718;9.118;2022-07-10T06:52:56;3.70;;;2.47;;
6582;SDS011;3325;48.718;9.118;2022-07-10T06:55:23;3.57;;;2.43;;
6582;SDS011;3325;48.718;9.118;2022-07-10T06:57:49;3.77;;;2.30;;
6582;SDS011;3325;48.718;9.118;2022-07-10T07:00:14;5.47;;;2.27;;
6582;SDS011;3325;48.718;9.118;2022-07-10T07:02:40;3.50;;;2.00;;
6582;SDS011;3325;48.718;9.118;2022-07-10T07:05:06;4.93;;;2.00;;
6582;SDS011;3325;48.718;9.118;2022-07-10T07:07:33;3.13;;;1.80;;
6582;SDS011;3325;48.718;9.118;2022-07-10T07:09:59;2.13;;;1.70;;
6582;SDS011;3325;48.718;9.118;2022-07-10T07:12:25;2.40;;;1.70;;
6582;SDS011;3325;48.718;9.118;2022-07-10T07:14:50;6.33;;;1.90;;
6582;SDS011;3325;48.718;9.118;2022-07-10T07:17:16;3.70;;;1.73;;
6582;SDS011;3325;48.718;9.118;2022-07-10T07:19:48;3.90;;;1.90;;
6582;SDS011;3325;48.718;9.118;2022-07-10T07:22:33;6.67;;;2.00;;
6582;SDS011;3325;48.718;9.118;2022-07-10T07:25:18;2.73;;;1.70;;
6582;SDS011;3325;48.718;9.118;2022-07-10T07:27:43;7.00;;;2.03;;
6582;SDS011;3325;48.718;9.118;2022-07-10T07:30:10;3.33;;;1.93;;
6582;SDS011;3325;48.718;9.118;2022-07-10T07:32:39;2.90;;;2.00;;
6582;SDS011;3325;48.718;9.118;2022-07-10T07:35:05;5.10;;;1.90;;
6582;SDS011;3325;48.718;9.118;2022-07-10T07:37:38;6.63;;;2.83;;
6582;SDS011;3325;48.718;9.118;2022-07-10T07:40:05;6.67;;;2.07;;
6582;SDS011;3325;48.718;9.118;2022-07-10T07:42:52;2.80;;;1.90;;
6582;SDS011;3325;48.718;9.118;2022-07-10T07:45:19;3.50;;;1.73;;
6582;SDS011;3325;48.718;9.118;2022-07-10T07:47:53;4.77;;;2.20;;
6582;SDS011;3325;48.718;9.118;2022-07-10T07:50:23;4.50;;;1.73;;
6582;SDS011;3325;48.718;9.118;2022-07-10T07:52:51;2.77;;;1.83;;
6582;SDS011;3325;48.718;9.118;2022-07-10T07:55:17;3.67;;;1.87;;
6582;SDS011;3325;48.718;9.118;2022-07-10T07:57:45;4.70;;;1.90;;
6582;SDS011;3325;48.718;9.118;2022-07-10T08:00:11;4.23;;;1.80;;
6582;SDS011;3325;48.718;9.118;2022-07-10T08:02:38;3.20;;;1.97;;
6582;SDS011;3325;48.718;9.118;2022-07-10T08:05:05;4.33;;;1.90;;
6582;SDS011;3325;48.718;9.118;2022-07-10T08:07:41;2.90;;;1.80;;
6582;SDS011;3325;48.718;9.118;2022-07-10T08:10:09;3.10;;;1.73;;
6582;SDS011;3325;48.718;9.118;2022-07-10T08:12:41;6.33;;;1.80;;
6582;SDS011;3325;48.718;9.118;2022-07-10T08:15:08;1.70;;;1.60;;
6582;SDS011;3325;48.718;9.118;2022-07-10T08:17:38;4.10;;;1.77;;
6582;SDS011;3325;48.718;9.118;2022-07-10T08:20:05;4.87;;;1.80;;
6582;SDS011;3325;48.718;9.118;2022-07-10T08:22:32;4.40;;;1.87;;
6582;SDS011;3325;48.718;9.118;2022-07-10T08:24:58;2.50;;;1.50;;
6582;SDS011;3325;48.718;9.118;2022-07-10T08:27:23;4.17;;;1.60;;
6582;SDS011;3325;48.718;9.118;2022-07-10T08:29:49;5.40;;;1.70;;
6582;SDS011;3325;48.718;9.118;2022-07-10T08:32:15;2.43;;;1.63;;
6582;SDS011;3325;48.718;9.118;2022-07-10T08:34:41;4.63;;;1.57;;
6582;SDS011;3325;48.718;9.118;2022-07-10T08:37:06;3.73;;;1.90;;
6582;SDS011;3325;48.718;9.118;2022-07-10T08:39:32;3.87;;;1.60;;
6582;SDS011;3325;48.718;9.118;2022-07-10T08:41:58;5.13;;;1.80;;
6582;SDS011;3325;48.718;9.118;2022-07-10T08:44:25;1.80;;;1.43;;
6582;SDS011;3325;48.718;9.118;2022-07-10T08:46:51;2.77;;;1.67;;
6582;SDS011;3325;48.718;9.118;2022-07-10T08:49:17;3.90;;;1.83;;
6582;SDS011;3325;48.718;9.118;2022-07-10T08:51:47;3.80;;;1.73;;
6582;SDS011;3325;48.718;9.118;2022-07-10T08:54:13;5.13;;;1.50;;
6582;SDS011;3325;48.718;9.118;2022-07-10T08:56:40;2.97;;;1.70;;
6582;SDS011;3325;48.718;9.118;2022-07-10T08:59:06;3.20;;;1.80;;
6582;SDS011;3325;48.718;9.118;2022-07-10T09:01:33;5.50;;;1.70;;
6582;SDS011;3325;48.718;9.118;2022-07-10T09:03:59;3.63;;;1.70;;
6582;SDS011;3325;48.718;9.118;2022-07-10T09:06:25;4.83;;;1.87;;
6582;SDS011;3325;48.718;9.118;2022-07-10T09:08:58;4.43;;;1.60;;
6582;SDS011;3325;48.718;9.118;2022-07-10T09:11:23;4.13;;;1.77;;
6582;SDS011;3325;48.718;9.118;2022-07-10T09:13:51;6.67;;;1.67;;
6582;SDS011;3325;48.718;9.118;2022-07-10T09:16:27;5.87;;;1.60;;
6582;SDS011;3325;48.718;9.118;2022-07-10T09:18:54;6.53;;;2.70;;
6582;SDS011;3325;48.718;9.118;2022-07-10T09:21:21;4.17;;;1.50;;
6582;SDS011;3325;48.718;9.118;2022-07-10T09:23:47;4.60;;;1.87;;
6582;SDS011;3325;48.718;9.118;2022-07-10T09:26:13;2.87;;;1.80;;
6582;SDS011;3325;48.718;9.118;2022-07-10T09:28:39;6.97;;;1.73;;
6582;SDS011;3325;48.718;9.118;2022-07-10T09:31:05;5.33;;;1.90;;
6582;SDS011;3325;48.718;9.118;2022-07-10T09:33:31;3.47;;;1.60;;
6582;SDS011;3325;48.718;9.118;2022-07-10T09:36:03;4.23;;;1.50;;
6582;SDS011;3325;48.718;9.118;2022-07-10T09:41:26;4.23;;;2.20;;
6582;SDS011;3325;48.718;9.118;2022-07-10T09:44:00;3.90;;;1.67;;
6582;SDS011;3325;48.718;9.118;2022-07-10T09:46:31;3.83;;;2.10;;
6582;SDS011;3325;48.718;9.118;2022-07-10T09:49:11;2.87;;;1.50;;
6582;SDS011;3325;48.718;9.118;2022-07-10T09:51:44;3.83;;;1.60;;
6582;SDS011;3325;48.718;9.118;2022-07-10T09:54:11;3.80;;;1.90;;
6582;SDS011;3325;48.718;9.118;2022-07-10T09:59:14;4.40;;;1.67;;
6582;SDS011;3325;48.718;9.118;2022-07-10T10:01:44;5.10;;;1.50;;
6582;SDS011;3325;48.718;9.118;2022-07-10T10:04:12;4.83;;;1.50;;
6582;SDS011;3325;48.718;9.118;2022-07-10T10:06:38;3.50;;;1.50;;
6582;SDS011;3325;48.718;9.118;2022-07-10T10:09:07;3.30;;;1.70;;
6582;SDS011;3325;48.718;9.118;2022-07-10T10:11:37;2.97;;;1.60;;
6582;SDS011;3325;48.718;9.118;2022-07-10T10:14:07;3.90;;;1.60;;
6582;SDS011;3325;48.718;9.118;2022-07-10T10:16:33;3.47;;;1.70;;
6582;SDS011;3325;48.718;9.118;2022-07-10T10:18:58;3.27;;;1.80;;
6582;SDS011;3325;48.718;9.118;2022-07-10T10:21:43;5.70;;;1.67;;
6582;SDS011;3325;48.718;9.118;2022-07-10T10:24:08;3.80;;;1.93;;
6582;SDS011;3325;48.718;9.118;2022-07-10T10:26:35;2.60;;;1.90;;
6582;SDS011;3325;48.718;9.118;2022-07-10T10:29:01;4.30;;;1.77;;
6582;SDS011;3325;48.718;9.118;2022-07-10T10:31:29;6.40;;;1.90;;
6582;SDS011;3325;48.718;9.118;2022-07-10T10:33:55;6.30;;;2.00;;
6582;SDS011;3325;48.718;9.118;2022-07-10T10:39:21;4.20;;;1.63;;
6582;SDS011;3325;48.718;9.118;2022-07-10T10:41:50;3.77;;;1.70;;
6582;SDS011;3325;48.718;9.118;2022-07-10T10:46:59;3.63;;;1.47;;
6582;SDS011;3325;48.718;9.118;2022-07-10T10:49:48;6.07;;;1.93;;
6582;SDS011;3325;48.718;9.118;2022-07-10T10:52:15;2.97;;;1.60;;
6582;SDS011;3325;48.718;9.118;2022-07-10T10:59:57;4.00;;;1.60;;
6582;SDS011;3325;48.718;9.118;2022-07-10T11:02:32;2.10;;;1.53;;
6582;SDS011;3325;48.718;9.118;2022-07-10T11:10:27;2.70;;;2.43;;
6582;SDS011;3325;48.718;9.118;2022-07-10T11:13:01;2.80;;;1.40;;
6582;SDS011;3325;48.718;9.118;2022-07-10T11:15:27;4.13;;;1.80;;
6582;SDS011;3325;48.718;9.118;2022-07-10T11:18:07;4.47;;;1.80;;
6582;SDS011;3325;48.718;9.118;2022-07-10T11:20:37;8.50;;;4.10;;
6582;SDS011;3325;48.718;9.118;2022-07-10T11:23:17;2.33;;;1.40;;
6582;SDS011;3325;48.718;9.118;2022-07-10T11:26:24;5.33;;;1.70;;
6582;SDS011;3325;48.718;9.118;2022-07-10T11:28:53;2.63;;;1.40;;
6582;SDS011;3325;48.718;9.118;2022-07-10T11:31:24;4.13;;;1.37;;
6582;SDS011;3325;48.718;9.118;2022-07-10T11:33:54;2.67;;;1.40;;
6582;SDS011;3325;48.718;9.118;2022-07-10T11:36:26;3.30;;;1.57;;
6582;SDS011;3325;48.718;9.118;2022-07-10T11:38:59;2.23;;;1.43;;
6582;SDS011;3325;48.718;9.118;2022-07-10T11:41:26;3.33;;;1.50;;
6582;SDS011;3325;48.718;9.118;2022-07-10T11:43:53;3.40;;;1.50;;
6582;SDS011;3325;48.718;9.118;2022-07-10T11:46:20;1.90;;;1.23;;
6582;SDS011;3325;48.718;9.118;2022-07-10T11:48:47;3.63;;;1.50;;
6582;SDS011;3325;48.718;9.118;2022-07-10T11:51:18;1.70;;;1.10;;
6582;SDS011;3325;48.718;9.118;2022-07-10T11:53:54;2.07;;;1.30;;
6582;SDS011;3325;48.718;9.118;2022-07-10T11:56:21;4.20;;;1.40;;
6582;SDS011;3325;48.718;9.118;2022-07-10T11:58:56;2.23;;;1.20;;
6582;SDS011;3325;48.718;9.118;2022-07-10T12:01:27;2.83;;;1.40;;
6582;SDS011;3325;48.718;9.118;2022-07-10T12:03:57;2.30;;;1.20;;
6582;SDS011;3325;48.718;9.118;2022-07-10T12:06:25;1.40;;;1.10;;
6582;SDS011;3325;48.718;9.118;2022-07-10T12:08:52;4.00;;;1.40;;
6582;SDS011;3325;48.718;9.118;2022-07-10T12:11:19;2.57;;;1.50;;
6582;SDS011;3325;48.718;9.118;2022-07-10T12:13:46;3.20;;;1.40;;
6582;SDS011;3325;48.718;9.118;2022-07-10T12:16:13;3.70;;;1.50;;
6582;SDS011;3325;48.718;9.118;2022-07-10T12:18:40;2.10;;;1.10;;
6582;SDS011;3325;48.718;9.118;2022-07-10T12:21:07;3.20;;;1.20;;
6582;SDS011;3325;48.718;9.118;2022-07-10T12:23:34;4.90;;;1.60;;
6582;SDS011;3325;48.718;9.118;2022-07-10T12:26:03;2.73;;;1.27;;
6582;SDS011;3325;48.718;9.118;2022-07-10T12:28:29;1.30;;;1.20;;
6582;SDS011;3325;48.718;9.118;2022-07-10T12:30:55;4.70;;;1.30;;
6582;SDS011;3325;48.718;9.118;2022-07-10T12:33:21;3.77;;;1.20;;
6582;SDS011;3325;48.718;9.118;2022-07-10T12:35:51;2.73;;;1.07;;
6582;SDS011;3325;48.718;9.118;2022-07-10T12:38:25;3.03;;;1.50;;
6582;SDS011;3325;48.718;9.118;2022-07-10T12:41:06;2.53;;;1.30;;
6582;SDS011;3325;48.718;9.118;2022-07-10T12:43:33;2.47;;;1.30;;
6582;SDS011;3325;48.718;9.118;2022-07-10T12:49:02;4.03;;;1.40;;
6582;SDS011;3325;48.718;9.118;2022-07-10T12:51:30;2.90;;;1.20;;
6582;SDS011;3325;48.718;9.118;2022-07-10T12:54:09;1.20;;;1.10;;
6582;SDS011;3325;48.718;9.118;2022-07-10T12:56:58;1.67;;;1.00;;
6582;SDS011;3325;48.718;9.118;2022-07-10T12:59:24;3.80;;;1.30;;
6582;SDS011;3325;48.718;9.118;2022-07-10T13:01:49;1.20;;;1.07;;
6582;SDS011;3325;48.718;9.118;2022-07-10T13:04:22;2.60;;;1.20;;
6582;SDS011;3325;48.718;9.118;2022-07-10T13:06:51;2.83;;;1.17;;
6582;SDS011;3325;48.718;9.118;2022-07-10T13:09:22;1.27;;;0.90;;
6582;SDS011;3325;48.718;9.118;2022-07-10T13:11:50;2.17;;;1.00;;
6582;SDS011;3325;48.718;9.118;2022-07-10T13:14:16;3.93;;;1.10;;
6582;SDS011;3325;48.718;9.118;2022-07-10T13:16:42;2.43;;;1.17;;
6582;SDS011;3325;48.718;9.118;2022-07-10T13:19:08;5.00;;;1.10;;
6582;SDS011;3325;48.718;9.118;2022-07-10T13:21:34;3.47;;;1.20;;
6582;SDS011;3325;48.718;9.118;2022-07-10T13:24:00;2.77;;;1.30;;
6582;SDS011;3325;48.718;9.118;2022-07-10T13:26:25;2.00;;;1.13;;
6582;SDS011;3325;48.718;9.118;2022-07-10T13:28:51;3.07;;;1.10;;
6582;SDS011;3325;48.718;9.118;2022-07-10T13:31:17;1.70;;;0.93;;
6582;SDS011;3325;48.718;9.118;2022-07-10T13:33:42;3.13;;;1.00;;
6582;SDS011;3325;48.718;9.118;2022-07-10T13:36:07;1.80;;;0.97;;
6582;SDS011;3325;48.718;9.118;2022-07-10T13:38:34;2.67;;;1.30;;
6582;SDS011;3325;48.718;9.118;2022-07-10T13:41:00;3.13;;;1.30;;
6582;SDS011;3325;48.718;9.118;2022-07-10T13:43:25;1.70;;;0.90;;
6582;SDS011;3325;48.718;9.118;2022-07-10T13:45:55;2.83;;;1.10;;
6582;SDS011;3325;48.718;9.118;2022-07-10T13:48:22;3.43;;;1.20;;
6582;SDS011;3325;48.718;9.118;2022-07-10T13:50:48;1.97;;;0.80;;
6582;SDS011;3325;48.718;9.118;2022-07-10T13:53:14;5.90;;;1.33;;
6582;SDS011;3325;48.718;9.118;2022-07-10T13:55:41;1.00;;;0.90;;
6582;SDS011;3325;48.718;9.118;2022-07-10T13:58:08;2.60;;;1.10;;
6582;SDS011;3325;48.718;9.118;2022-07-10T14:00:34;1.47;;;1.00;;
6582;SDS011;3325;48.718;9.118;2022-07-10T14:03:00;3.50;;;0.93;;
6582;SDS011;3325;48.718;9.118;2022-07-10T14:05:25;2.17;;;1.07;;
6582;SDS011;3325;48.718;9.118;2022-07-10T14:07:51;3.23;;;1.30;;
6582;SDS011;3325;48.718;9.118;2022-07-10T14:10:16;2.63;;;1.10;;
6582;SDS011;3325;48.718;9.118;2022-07-10T14:12:42;2.50;;;1.03;;
6582;SDS011;3325;48.718;9.118;2022-07-10T14:15:08;2.20;;;1.03;;
6582;SDS011;3325;48.718;9.118;2022-07-10T14:17:34;3.10;;;1.27;;
6582;SDS011;3325;48.718;9.118;2022-07-10T14:20:00;3.50;;;1.30;;
6582;SDS011;3325;48.718;9.118;2022-07-10T14:22:26;1.97;;;1.10;;
6582;SDS011;3325;48.718;9.118;2022-07-10T14:24:51;3.60;;;1.23;;
6582;SDS011;3325;48.718;9.118;2022-07-10T14:27:18;3.57;;;1.10;;
6582;SDS011;3325;48.718;9.118;2022-07-10T14:29:44;2.43;;;1.07;;
6582;SDS011;3325;48.718;9.118;2022-07-10T14:32:10;1.10;;;0.90;;
6582;SDS011;3325;48.718;9.118;2022-07-10T14:34:35;1.70;;;0.83;;
6582;SDS011;3325;48.718;9.118;2022-07-10T14:37:01;2.93;;;1.03;;
6582;SDS011;3325;48.718;9.118;2022-07-10T14:39:27;2.90;;;1.00;;
6582;SDS011;3325;48.718;9.118;2022-07-10T14:41:52;3.07;;;1.10;;
6582;SDS011;3325;48.718;9.118;2022-07-10T14:44:18;3.77;;;1.00;;
6582;SDS011;3325;48.718;9.118;2022-07-10T14:46:44;2.80;;;1.10;;
6582;SDS011;3325;48.718;9.118;2022-07-10T14:49:09;2.47;;;0.90;;
6582;SDS011;3325;48.718;9.118;2022-07-10T14:51:35;1.67;;;0.87;;
6582;SDS011;3325;48.718;9.118;2022-07-10T14:54:01;3.63;;;1.13;;
6582;SDS011;3325;48.718;9.118;2022-07-10T14:56:27;1.90;;;1.00;;
6582;SDS011;3325;48.718;9.118;2022-07-10T14:58:52;5.63;;;1.00;;
6582;SDS011;3325;48.718;9.118;2022-07-10T15:01:18;1.23;;;1.00;;
6582;SDS011;3325;48.718;9.118;2022-07-10T15:03:43;1.43;;;0.90;;
6582;SDS011;3325;48.718;9.118;2022-07-10T15:06:09;1.43;;;1.13;;
6582;SDS011;3325;48.718;9.118;2022-07-10T15:08:34;4.57;;;1.20;;
6582;SDS011;3325;48.718;9.118;2022-07-10T15:11:00;3.07;;;1.07;;
6582;SDS011;3325;48.718;9.118;2022-07-10T15:13:27;4.17;;;1.10;;
6582;SDS011;3325;48.718;9.118;2022-07-10T15:15:53;2.83;;;0.90;;
6582;SDS011;3325;48.718;9.118;2022-07-10T15:18:18;1.63;;;0.97;;
6582;SDS011;3325;48.718;9.118;2022-07-10T15:20:45;2.77;;;1.00;;
6582;SDS011;3325;48.718;9.118;2022-07-10T15:23:11;1.60;;;0.90;;
6582;SDS011;3325;48.718;9.118;2022-07-10T15:25:37;2.30;;;0.97;;
6582;SDS011;3325;48.718;9.118;2022-07-10T15:28:04;4.97;;;1.33;;
6582;SDS011;3325;48.718;9.118;2022-07-10T15:30:32;0.93;;;0.87;;
6582;SDS011;3325;48.718;9.118;2022-07-10T15:33:02;3.77;;;1.03;;
6582;SDS011;3325;48.718;9.118;2022-07-10T15:35:28;0.93;;;0.93;;
6582;SDS011;3325;48.718;9.118;2022-07-10T15:37:54;4.10;;;1.57;;
6582;SDS011;3325;48.718;9.118;2022-07-10T15:40:20;4.43;;;1.13;;